createdAt,value
2019-01-10T00:01:25.250Z,1.80
2019-01-10T00:03:56.148Z,1.60
2019-01-10T00:06:27.071Z,1.53
2019-01-10T00:08:57.990Z,2.00
2019-01-10T00:11:28.857Z,1.10
2019-01-10T00:13:59.776Z,1.57
2019-01-10T00:16:30.666Z,1.40
2019-01-10T00:19:01.925Z,1.40
2019-01-10T00:21:32.808Z,1.80
2019-01-10T00:24:03.696Z,1.90
2019-01-10T00:26:34.594Z,1.60
2019-01-10T00:29:05.567Z,1.53
2019-01-10T00:31:36.505Z,1.43
2019-01-10T00:34:07.693Z,1.53
2019-01-10T00:36:38.574Z,2.23
2019-01-10T00:39:10.003Z,1.80
2019-01-10T00:41:40.930Z,1.90
2019-01-10T00:44:11.920Z,1.83
2019-01-10T00:46:42.803Z,2.00
2019-01-10T00:49:13.678Z,1.70
2019-01-10T00:51:44.651Z,1.73
2019-01-10T00:54:15.530Z,1.87
2019-01-10T00:56:46.538Z,1.63
2019-01-10T00:59:17.415Z,1.93
2019-01-10T01:01:48.366Z,2.20
2019-01-10T01:04:19.307Z,1.53
2019-01-10T01:06:50.189Z,1.33
2019-01-10T01:09:21.159Z,1.30
2019-01-10T01:11:52.527Z,1.83
2019-01-10T01:14:23.900Z,1.20
2019-01-10T01:16:54.792Z,1.47
2019-01-10T01:19:25.681Z,1.20
2019-01-10T01:21:56.606Z,2.10
2019-01-10T01:24:27.811Z,1.57
2019-01-10T01:26:58.735Z,1.47
2019-01-10T01:29:29.649Z,1.30
2019-01-10T01:32:00.817Z,1.63
2019-01-10T01:34:32.102Z,1.60
2019-01-10T01:37:03.339Z,1.90
2019-01-10T01:39:34.211Z,1.97
2019-01-10T01:42:05.195Z,1.43
2019-01-10T01:44:36.144Z,2.53
2019-01-10T01:47:07.191Z,1.60
2019-01-10T01:49:38.070Z,1.67
2019-01-10T01:52:09.046Z,1.40
2019-01-10T01:54:39.964Z,2.17
2019-01-10T01:57:11.179Z,1.63
2019-01-10T01:59:42.127Z,1.30
2019-01-10T02:02:13.039Z,1.70
2019-01-10T02:04:43.909Z,1.43
2019-01-10T02:07:14.906Z,1.50
2019-01-10T02:09:45.846Z,1.40
2019-01-10T02:12:16.769Z,1.50
2019-01-10T02:14:47.647Z,1.53
2019-01-10T02:17:18.545Z,1.73
2019-01-10T02:19:49.462Z,1.50
2019-01-10T02:22:20.443Z,1.00
2019-01-10T02:24:52.052Z,1.63
2019-01-10T02:27:23.278Z,1.63
2019-01-10T02:29:54.164Z,1.60
2019-01-10T02:32:25.104Z,1.40
2019-01-10T02:34:56.042Z,1.07
2019-01-10T02:37:27.012Z,1.43
2019-01-10T02:39:57.907Z,1.33
2019-01-10T02:42:28.814Z,1.30
2019-01-10T02:44:59.733Z,1.47
2019-01-10T02:47:30.660Z,1.30
2019-01-10T02:50:01.663Z,1.60
2019-01-10T02:52:32.564Z,1.33
2019-01-10T02:55:03.577Z,1.13
2019-01-10T02:57:34.729Z,0.80
2019-01-10T03:00:07.300Z,1.20
2019-01-10T03:02:38.267Z,1.10
2019-01-10T03:05:10.535Z,1.40
2019-01-10T03:07:41.458Z,1.27
2019-01-10T03:10:14.198Z,0.97
2019-01-10T03:12:45.114Z,1.20
2019-01-10T03:15:16.339Z,1.40
2019-01-10T03:17:47.262Z,1.10
2019-01-10T03:20:21.368Z,1.00
2019-01-10T03:22:52.274Z,1.27
2019-01-10T03:25:23.300Z,1.10
2019-01-10T03:27:54.240Z,1.00
2019-01-10T03:30:25.140Z,1.13
2019-01-10T03:32:56.176Z,1.20
2019-01-10T03:35:27.135Z,0.97
2019-01-10T03:37:58.016Z,1.10
2019-01-10T03:40:28.959Z,1.30
2019-01-10T03:42:59.851Z,1.23
2019-01-10T03:45:30.902Z,1.20
2019-01-10T03:48:01.871Z,1.33
2019-01-10T03:50:33.135Z,1.30
2019-01-10T03:53:04.066Z,0.90
2019-01-10T03:55:35.014Z,1.23
2019-01-10T03:58:05.968Z,1.10
2019-01-10T04:00:36.844Z,1.17
2019-01-10T04:03:07.771Z,1.70
2019-01-10T04:05:38.688Z,1.00
2019-01-10T04:08:09.888Z,0.83
2019-01-10T04:10:40.884Z,0.80
2019-01-10T04:13:11.762Z,1.00
2019-01-10T04:15:42.721Z,1.17
2019-01-10T04:18:13.649Z,1.23
2019-01-10T04:20:44.526Z,0.90
2019-01-10T04:23:15.511Z,1.10
2019-01-10T04:25:46.428Z,0.80
2019-01-10T04:28:17.383Z,1.17
2019-01-10T04:30:48.340Z,1.03
2019-01-10T04:33:19.231Z,1.00
2019-01-10T04:35:50.301Z,1.27
2019-01-10T04:38:21.234Z,1.73
2019-01-10T04:40:52.404Z,1.40
2019-01-10T04:43:23.320Z,1.57
2019-01-10T04:45:54.513Z,1.13
2019-01-10T04:48:25.428Z,1.23
2019-01-10T04:50:56.617Z,1.10
2019-01-10T04:53:27.510Z,1.57
2019-01-10T04:55:58.800Z,1.77
2019-01-10T04:58:29.760Z,1.13
2019-01-10T05:01:00.702Z,1.30
2019-01-10T05:03:31.697Z,0.70
2019-01-10T05:06:03.205Z,0.93
2019-01-10T05:08:34.126Z,1.97
2019-01-10T05:11:05.138Z,1.27
2019-01-10T05:13:36.056Z,1.17
2019-01-10T05:16:06.931Z,1.30
2019-01-10T05:18:37.813Z,1.20
2019-01-10T05:21:09.032Z,1.10
2019-01-10T05:23:39.919Z,1.20
2019-01-10T05:26:10.862Z,1.07
2019-01-10T05:28:42.217Z,0.93
2019-01-10T05:31:13.240Z,1.33
2019-01-10T05:33:44.288Z,1.13
2019-01-10T05:36:15.255Z,2.67
2019-01-10T05:38:46.262Z,1.40
2019-01-10T05:41:17.286Z,1.70
2019-01-10T05:43:48.559Z,1.10
2019-01-10T05:46:19.616Z,1.20
2019-01-10T05:48:50.571Z,1.30
2019-01-10T05:51:21.587Z,1.10
2019-01-10T05:53:52.658Z,1.47
2019-01-10T05:56:23.673Z,1.53
2019-01-10T05:58:54.650Z,1.47
2019-01-10T06:01:25.688Z,1.47
2019-01-10T06:03:57.011Z,1.50
2019-01-10T06:06:27.977Z,1.30
2019-01-10T06:08:59.341Z,2.10
2019-01-10T06:11:30.338Z,1.87
2019-01-10T06:14:01.301Z,1.70
2019-01-10T06:16:32.295Z,1.37
2019-01-10T06:19:03.246Z,2.03
2019-01-10T06:21:34.194Z,1.63
2019-01-10T06:24:05.322Z,2.00
2019-01-10T06:26:36.295Z,2.10
2019-01-10T06:29:07.654Z,1.87
2019-01-10T06:31:38.935Z,1.50
2019-01-10T06:34:13.081Z,1.53
2019-01-10T06:36:44.422Z,1.87
2019-01-10T06:39:18.384Z,1.50
2019-01-10T06:41:48.099Z,1.10
2019-01-10T06:44:19.500Z,1.63
2019-01-10T06:46:51.811Z,1.90
2019-01-10T06:49:22.735Z,1.73
2019-01-10T06:51:53.684Z,1.47
2019-01-10T06:54:24.678Z,1.30
2019-01-10T06:56:57.785Z,1.93
2019-01-10T06:59:29.148Z,1.30
2019-01-10T07:02:00.118Z,1.90
2019-01-10T07:04:31.394Z,1.37
2019-01-10T07:07:02.603Z,1.60
2019-01-10T07:09:33.505Z,1.60
2019-01-10T07:12:04.431Z,2.23
2019-01-10T07:14:35.334Z,1.90
2019-01-10T07:17:06.213Z,2.10
2019-01-10T07:19:47.235Z,2.30
2019-01-10T07:22:19.774Z,2.07
2019-01-10T07:24:53.890Z,1.93
2019-01-10T07:27:25.119Z,2.10
2019-01-10T07:30:00.087Z,1.97
2019-01-10T07:32:31.125Z,2.00
2019-01-10T07:35:11.623Z,1.83
2019-01-10T07:37:42.566Z,2.77
2019-01-10T07:40:18.421Z,2.93
2019-01-10T07:42:49.304Z,2.10
2019-01-10T07:45:30.094Z,1.73
2019-01-10T07:48:01.034Z,9.77
2019-01-10T07:50:37.400Z,13.60
2019-01-10T07:53:10.163Z,5.87
2019-01-10T07:55:41.657Z,2.20
2019-01-10T07:58:12.571Z,1.97
2019-01-10T08:00:43.435Z,1.90
2019-01-10T08:03:14.538Z,2.13
2019-01-10T08:05:45.563Z,1.80
2019-01-10T08:08:16.489Z,2.57
2019-01-10T08:10:47.497Z,2.07
2019-01-10T08:13:19.644Z,1.90
2019-01-10T08:15:50.915Z,1.97
2019-01-10T08:18:22.137Z,1.93
2019-01-10T08:20:53.162Z,1.80
2019-01-10T08:23:24.078Z,1.70
2019-01-10T08:25:55.000Z,2.83
2019-01-10T08:28:25.982Z,1.80
2019-01-10T08:30:57.559Z,1.87
2019-01-10T08:33:28.451Z,1.70
2019-01-10T08:35:59.359Z,1.77
2019-01-10T08:38:30.645Z,1.47
2019-01-10T08:41:27.896Z,1.93
2019-01-10T08:43:59.351Z,1.53
2019-01-10T08:46:30.255Z,1.50
2019-01-10T08:49:07.460Z,1.30
2019-01-10T08:51:39.250Z,1.97
2019-01-10T08:54:10.215Z,1.97
2019-01-10T08:56:41.231Z,1.70
2019-01-10T08:59:38.645Z,1.60
2019-01-10T09:02:09.857Z,1.60
2019-01-10T09:04:40.756Z,1.30
2019-01-10T09:07:12.043Z,1.60
2019-01-10T09:09:42.971Z,1.60
2019-01-10T09:12:13.840Z,1.80
2019-01-10T09:14:45.371Z,1.60
2019-01-10T09:17:16.238Z,1.63
2019-01-10T09:19:47.116Z,1.70
2019-01-10T09:22:18.019Z,1.73
2019-01-10T09:24:48.918Z,1.50
2019-01-10T09:27:19.855Z,1.77
2019-01-10T09:29:50.766Z,2.03
2019-01-10T09:32:21.684Z,2.40
2019-01-10T09:34:52.690Z,1.90
2019-01-10T09:37:23.579Z,1.30
2019-01-10T09:39:54.540Z,1.90
2019-01-10T09:42:25.421Z,1.43
2019-01-10T09:44:56.301Z,1.83
2019-01-10T09:47:27.312Z,1.70
2019-01-10T09:49:58.518Z,1.57
2019-01-10T09:52:29.500Z,1.53
2019-01-10T09:55:00.530Z,1.97
2019-01-10T09:57:31.738Z,1.53
2019-01-10T10:00:02.952Z,2.03
2019-01-10T10:02:33.835Z,2.00
2019-01-10T10:05:05.063Z,1.77
2019-01-10T10:07:35.941Z,1.60
2019-01-10T10:10:09.747Z,1.50
2019-01-10T10:12:40.668Z,1.53
2019-01-10T10:15:12.163Z,1.80
2019-01-10T10:17:43.370Z,1.30
2019-01-10T10:20:18.059Z,1.20
2019-01-10T10:22:49.063Z,2.20
2019-01-10T10:25:20.102Z,1.40
2019-01-10T10:27:51.017Z,1.60
2019-01-10T10:30:23.090Z,1.60
2019-01-10T10:32:54.280Z,1.47
2019-01-10T10:35:25.817Z,1.90
2019-01-10T10:37:56.701Z,1.63
2019-01-10T10:40:27.594Z,1.80
2019-01-10T10:42:58.514Z,1.47
2019-01-10T10:45:29.397Z,1.70
2019-01-10T10:48:00.356Z,2.20
2019-01-10T10:50:31.926Z,1.40
2019-01-10T10:53:06.332Z,1.57
2019-01-10T10:55:37.482Z,1.23
2019-01-10T10:58:08.476Z,1.17
2019-01-10T11:00:39.599Z,2.03
2019-01-10T11:03:10.772Z,2.20
2019-01-10T11:05:42.027Z,1.80
2019-01-10T11:08:12.936Z,1.97
2019-01-10T11:10:43.808Z,2.10
2019-01-10T11:13:14.985Z,2.83
2019-01-10T11:15:45.893Z,1.90
2019-01-10T11:18:16.801Z,2.23
2019-01-10T11:20:47.693Z,1.93
2019-01-10T11:23:18.625Z,2.00
2019-01-10T11:25:49.881Z,2.37
2019-01-10T11:28:20.752Z,2.23
2019-01-10T11:30:51.996Z,1.60
2019-01-10T11:33:23.212Z,4.23
2019-01-10T11:35:54.427Z,1.97
2019-01-10T11:38:25.614Z,1.67
2019-01-10T11:40:56.775Z,3.00
2019-01-10T11:43:27.707Z,4.30
2019-01-10T11:45:58.612Z,4.00
2019-01-10T11:48:29.483Z,5.10
2019-01-10T11:51:00.376Z,3.27
2019-01-10T11:53:35.510Z,5.47
2019-01-10T11:56:03.935Z,5.27
2019-01-10T11:58:35.106Z,4.60
2019-01-10T12:01:07.609Z,4.03
2019-01-10T12:03:38.616Z,2.67
2019-01-10T12:06:09.600Z,4.27
2019-01-10T12:08:40.486Z,1.40
2019-01-10T12:11:11.462Z,1.57
2019-01-10T12:13:42.422Z,4.50
2019-01-10T12:16:13.394Z,3.90
2019-01-10T12:18:44.996Z,3.63
2019-01-10T12:21:15.904Z,4.73
2019-01-10T12:23:46.803Z,3.20
2019-01-10T12:26:17.782Z,2.77
2019-01-10T12:28:48.689Z,2.93
2019-01-10T12:31:19.613Z,2.10
2019-01-10T12:33:50.500Z,4.30
2019-01-10T12:36:21.463Z,3.37
2019-01-10T12:38:52.383Z,2.40
2019-01-10T12:41:23.277Z,4.90
2019-01-10T12:43:54.264Z,4.23
2019-01-10T12:46:25.562Z,2.20
2019-01-10T12:48:56.779Z,6.20
2019-01-10T12:51:28.644Z,2.60
2019-01-10T12:53:59.606Z,1.10
2019-01-10T12:56:30.589Z,4.70
2019-01-10T12:59:01.490Z,4.03
2019-01-10T13:01:32.755Z,1.70
2019-01-10T13:04:03.721Z,2.50
2019-01-10T13:06:34.648Z,1.93
2019-01-10T13:09:08.210Z,4.07
2019-01-10T13:11:39.366Z,3.43
2019-01-10T13:14:10.272Z,5.10
2019-01-10T13:16:46.717Z,2.53
2019-01-10T13:19:13.773Z,3.80
2019-01-10T13:21:45.011Z,5.73
2019-01-10T13:24:15.943Z,2.40
2019-01-10T13:26:47.122Z,3.70
2019-01-10T13:29:18.096Z,2.37
2019-01-10T13:31:49.026Z,4.50
2019-01-10T13:34:19.948Z,2.97
2019-01-10T13:36:50.927Z,5.20
2019-01-10T13:39:21.830Z,3.70
2019-01-10T13:41:52.817Z,3.20
2019-01-10T13:44:23.983Z,3.50
2019-01-10T13:46:55.723Z,3.10
2019-01-10T13:49:27.250Z,2.10
2019-01-10T13:51:58.105Z,3.40
2019-01-10T13:54:29.012Z,4.73
2019-01-10T13:56:59.930Z,2.73
2019-01-10T13:59:30.899Z,3.90
2019-01-10T14:02:01.789Z,3.20
2019-01-10T14:04:32.655Z,4.00
2019-01-10T14:07:03.589Z,4.73
2019-01-10T14:09:34.476Z,2.93
2019-01-10T14:12:05.898Z,1.97
2019-01-10T14:14:37.053Z,2.50
2019-01-10T14:17:08.224Z,3.43
2019-01-10T14:19:39.119Z,2.93
2019-01-10T14:22:10.090Z,2.90
2019-01-10T14:24:41.079Z,2.20
2019-01-10T14:27:11.954Z,2.73
2019-01-10T14:29:42.835Z,2.03
2019-01-10T14:32:13.737Z,2.20
2019-01-10T14:34:44.637Z,5.20
2019-01-10T14:37:15.654Z,5.70
2019-01-10T14:39:46.894Z,4.40
2019-01-10T14:42:17.836Z,3.10
2019-01-10T14:44:48.750Z,2.97
2019-01-10T14:47:19.901Z,2.60
2019-01-10T14:49:50.821Z,2.83
2019-01-10T14:52:46.283Z,2.90
2019-01-10T14:55:41.121Z,3.33
2019-01-10T14:58:12.660Z,2.40
2019-01-10T15:00:43.595Z,3.00
2019-01-10T15:03:14.465Z,3.10
2019-01-10T15:05:45.344Z,3.10
2019-01-10T15:08:16.263Z,3.90
2019-01-10T15:10:47.530Z,4.10
2019-01-10T15:13:18.428Z,4.00
2019-01-10T15:15:49.601Z,3.10
2019-01-10T15:18:20.759Z,3.83
2019-01-10T15:20:51.644Z,4.70
2019-01-10T15:23:22.805Z,3.63
2019-01-10T15:25:53.723Z,3.97
2019-01-10T15:28:24.588Z,7.63
2019-01-10T15:30:55.758Z,5.20
2019-01-10T15:33:26.659Z,4.40
2019-01-10T15:35:57.533Z,3.50
2019-01-10T15:38:28.436Z,3.30
2019-01-10T15:40:59.618Z,2.97
2019-01-10T15:43:30.553Z,2.77
2019-01-10T15:46:01.470Z,3.00
2019-01-10T15:48:32.339Z,3.07
2019-01-10T15:51:03.253Z,3.37
2019-01-10T15:53:34.420Z,3.30
2019-01-10T15:56:05.505Z,3.70
2019-01-10T15:58:36.412Z,3.70
2019-01-10T16:01:07.280Z,3.17
2019-01-10T16:03:38.199Z,3.13
2019-01-10T16:06:09.385Z,3.53
2019-01-10T16:08:40.260Z,3.37
2019-01-10T16:11:11.446Z,4.00
2019-01-10T16:13:42.608Z,4.10
2019-01-10T16:16:13.529Z,5.40
2019-01-10T16:18:44.394Z,5.67
2019-01-10T16:21:15.260Z,4.97
2019-01-10T16:23:46.182Z,5.30
2019-01-10T16:26:17.065Z,5.37
2019-01-10T16:28:48.341Z,6.50
2019-01-10T16:31:19.219Z,5.20
2019-01-10T16:33:50.083Z,6.17
2019-01-10T16:36:22.328Z,5.80
2019-01-10T16:38:53.207Z,5.40
2019-01-10T16:41:24.158Z,11.07
2019-01-10T16:43:55.122Z,14.73
2019-01-10T16:46:26.004Z,9.57
2019-01-10T16:48:57.250Z,6.43
2019-01-10T16:51:28.713Z,5.87
2019-01-10T16:53:59.658Z,11.60
2019-01-10T16:56:30.535Z,14.60
2019-01-10T16:59:01.442Z,7.57
2019-01-10T17:01:32.377Z,6.77
2019-01-10T17:04:03.350Z,5.47
2019-01-10T17:06:34.665Z,6.97
2019-01-10T17:09:08.618Z,6.67
2019-01-10T17:11:39.648Z,34.97
2019-01-10T17:14:10.533Z,30.07
2019-01-10T17:16:41.419Z,14.00
2019-01-10T17:19:12.325Z,9.53
2019-01-10T17:21:43.206Z,5.70
2019-01-10T17:24:14.131Z,5.70
2019-01-10T17:26:45.011Z,5.60
2019-01-10T17:29:15.912Z,5.77
2019-01-10T17:31:46.868Z,5.83
2019-01-10T17:34:17.746Z,5.60
2019-01-10T17:36:49.240Z,5.93
2019-01-10T17:39:20.135Z,4.90
2019-01-10T17:41:51.023Z,6.00
2019-01-10T17:44:21.934Z,5.80
2019-01-10T17:46:52.836Z,5.60
2019-01-10T17:49:23.770Z,5.17
2019-01-10T17:51:54.660Z,6.30
2019-01-10T17:54:25.842Z,6.47
2019-01-10T17:56:56.741Z,5.77
2019-01-10T17:59:27.684Z,5.30
2019-01-10T18:01:58.931Z,6.80
2019-01-10T18:04:30.096Z,5.37
2019-01-10T18:07:01.022Z,5.67
2019-01-10T18:09:31.949Z,5.80
2019-01-10T18:12:04.659Z,6.53
2019-01-10T18:14:35.608Z,7.00
2019-01-10T18:17:06.608Z,6.20
2019-01-10T18:19:37.493Z,5.23
2019-01-10T18:22:08.427Z,4.97
2019-01-10T18:24:39.314Z,5.17
2019-01-10T18:27:10.312Z,4.97
2019-01-10T18:29:41.584Z,5.60
2019-01-10T18:32:12.749Z,5.80
2019-01-10T18:34:43.679Z,6.70
2019-01-10T18:37:14.591Z,5.23
2019-01-10T18:39:45.501Z,5.60
2019-01-10T18:42:16.399Z,5.63
2019-01-10T18:44:47.603Z,7.00
2019-01-10T18:47:18.569Z,5.57
2019-01-10T18:49:51.652Z,6.53
2019-01-10T18:52:22.587Z,6.27
2019-01-10T18:54:53.492Z,7.23
2019-01-10T18:57:24.389Z,7.10
2019-01-10T18:59:55.324Z,6.00
2019-01-10T19:03:16.175Z,7.20
2019-01-10T19:06:47.354Z,7.10
2019-01-10T19:10:21.898Z,6.60
2019-01-10T19:12:51.511Z,9.57
2019-01-10T19:15:23.338Z,6.57
2019-01-10T19:17:54.246Z,6.07
2019-01-10T19:20:28.406Z,7.07
2019-01-10T19:23:01.858Z,6.57
2019-01-10T19:25:33.398Z,6.40
2019-01-10T19:28:04.273Z,6.03
2019-01-10T19:30:38.407Z,6.50
2019-01-10T19:33:09.467Z,6.60
2019-01-10T19:35:42.017Z,8.50
2019-01-10T19:38:13.552Z,7.13
2019-01-10T19:40:44.540Z,7.97
2019-01-10T19:43:17.130Z,7.40
2019-01-10T19:45:48.314Z,7.00
2019-01-10T19:48:19.815Z,9.47
2019-01-10T19:50:52.986Z,8.40
2019-01-10T19:53:23.878Z,7.90
2019-01-10T19:55:55.721Z,9.73
2019-01-10T19:58:26.624Z,9.70
2019-01-10T20:00:58.476Z,11.30
2019-01-10T20:03:29.737Z,13.27
2019-01-10T20:06:01.096Z,16.10
2019-01-10T20:08:32.351Z,18.03
2019-01-10T20:11:03.335Z,17.33
2019-01-10T20:13:37.300Z,16.00
2019-01-10T20:16:08.773Z,13.50
2019-01-10T20:18:40.324Z,11.50
2019-01-10T20:21:13.279Z,11.80
2019-01-10T20:23:44.506Z,10.60
2019-01-10T20:26:16.580Z,11.20
2019-01-10T20:28:47.905Z,10.13
2019-01-10T20:31:19.067Z,12.33
2019-01-10T20:33:49.981Z,11.20
2019-01-10T20:36:22.221Z,12.07
2019-01-10T20:38:53.165Z,11.50
2019-01-10T20:41:24.052Z,12.40
2019-01-10T20:43:55.005Z,13.70
2019-01-10T20:46:25.910Z,14.00
2019-01-10T20:48:56.786Z,13.97
2019-01-10T20:51:27.694Z,13.77
2019-01-10T20:53:58.568Z,13.90
2019-01-10T20:56:29.507Z,12.23
2019-01-10T20:59:00.678Z,13.27
2019-01-10T21:01:32.148Z,12.90
2019-01-10T21:04:03.187Z,13.80
2019-01-10T21:06:36.838Z,13.57
2019-01-10T21:09:13.115Z,13.00
2019-01-10T21:11:43.317Z,15.20
2019-01-10T21:14:14.271Z,15.47
2019-01-10T21:16:45.168Z,14.20
2019-01-10T21:19:16.068Z,16.07
2019-01-10T21:21:46.966Z,14.80
2019-01-10T21:24:18.142Z,16.13
2019-01-10T21:26:49.419Z,17.50
2019-01-10T21:29:26.300Z,18.30
2019-01-10T21:31:57.241Z,19.17
2019-01-10T21:34:28.217Z,19.03
2019-01-10T21:36:59.084Z,18.47
2019-01-10T21:39:30.001Z,17.73
2019-01-10T21:42:01.385Z,18.67
2019-01-10T21:44:32.392Z,18.50
2019-01-10T21:47:03.315Z,18.47
2019-01-10T21:49:34.203Z,16.97
2019-01-10T21:52:05.236Z,18.03
2019-01-10T21:54:37.967Z,17.33
2019-01-10T21:57:09.173Z,17.93
2019-01-10T21:59:40.065Z,18.17
2019-01-10T22:02:10.992Z,18.83
2019-01-10T22:04:42.158Z,18.53
2019-01-10T22:07:13.042Z,19.17
2019-01-10T22:09:43.968Z,19.17
2019-01-10T22:12:14.903Z,18.40
2019-01-10T22:14:45.846Z,18.03
2019-01-10T22:17:16.725Z,18.03
2019-01-10T22:19:47.884Z,16.47
2019-01-10T22:22:19.070Z,17.53
2019-01-10T22:24:50.093Z,19.67
2019-01-10T22:27:21.017Z,20.53
2019-01-10T22:29:51.903Z,19.30
2019-01-10T22:32:22.840Z,19.63
2019-01-10T22:34:53.818Z,19.07
2019-01-10T22:37:28.971Z,21.40
2019-01-10T22:39:57.444Z,19.70
2019-01-10T22:42:28.399Z,19.13
2019-01-10T22:44:59.281Z,19.00
2019-01-10T22:47:30.188Z,19.60
2019-01-10T22:50:01.062Z,20.90
2019-01-10T22:52:32.379Z,18.97
2019-01-10T22:55:03.333Z,22.90
2019-01-10T22:57:34.548Z,21.53
2019-01-10T23:00:12.242Z,21.03
2019-01-10T23:02:43.520Z,20.10
2019-01-10T23:05:14.542Z,19.63
2019-01-10T23:07:45.887Z,18.07
2019-01-10T23:10:16.854Z,19.10
2019-01-10T23:12:47.736Z,18.80
2019-01-10T23:15:35.771Z,19.00
2019-01-10T23:18:07.773Z,18.83
2019-01-10T23:20:38.722Z,19.10
2019-01-10T23:23:11.517Z,19.87
2019-01-10T23:25:42.497Z,18.57
2019-01-10T23:28:13.428Z,21.13
2019-01-10T23:30:59.603Z,21.23
2019-01-10T23:33:30.938Z,19.67
2019-01-10T23:36:06.074Z,20.90
2019-01-10T23:38:37.156Z,22.20
2019-01-10T23:41:08.141Z,22.10
2019-01-10T23:43:39.120Z,21.50
2019-01-10T23:46:10.148Z,22.20
2019-01-10T23:48:41.319Z,20.27
2019-01-10T23:51:12.561Z,19.33
2019-01-10T23:53:43.463Z,19.27
2019-01-10T23:56:14.331Z,20.30
2019-01-10T23:58:45.528Z,20.50
